createdAt,value
2022-08-24T00:00:20.776Z,25.14
2022-08-24T00:01:37.418Z,25.49
2022-08-24T00:02:39.332Z,25.70
2022-08-24T00:03:42.444Z,25.84
2022-08-24T00:04:44.173Z,25.96
2022-08-24T00:05:48.805Z,26.06
2022-08-24T00:06:50.608Z,26.14
2022-08-24T00:07:53.168Z,26.22
2022-08-24T00:08:58.133Z,26.27
2022-08-24T00:10:00.502Z,26.32
2022-08-24T00:11:02.521Z,26.34
2022-08-24T00:12:05.258Z,26.34
2022-08-24T00:13:07.290Z,26.35
2022-08-24T00:14:09.330Z,26.38
2022-08-24T00:15:13.415Z,26.41
2022-08-24T00:16:17.086Z,26.41
2022-08-24T00:17:20.592Z,26.42
2022-08-24T00:18:23.372Z,26.44
2022-08-24T00:19:25.857Z,26.47
2022-08-24T00:20:29.152Z,26.50
2022-08-24T00:21:30.813Z,26.51
2022-08-24T00:22:32.475Z,26.52
2022-08-24T00:23:36.193Z,26.53
2022-08-24T00:24:38.190Z,26.54
2022-08-24T00:25:40.050Z,26.56
2022-08-24T00:26:41.759Z,26.55
2022-08-24T00:27:43.549Z,26.55
2022-08-24T00:28:45.451Z,26.54
2022-08-24T00:29:49.349Z,26.54
2022-08-24T00:30:51.753Z,26.54
2022-08-24T00:31:54.064Z,26.56
2022-08-24T00:32:56.508Z,26.55
2022-08-24T00:33:59.436Z,26.51
2022-08-24T00:35:01.163Z,26.51
2022-08-24T00:36:04.923Z,26.52
2022-08-24T00:37:06.758Z,26.53
2022-08-24T00:38:08.612Z,26.55
2022-08-24T00:39:12.959Z,26.53
2022-08-24T00:40:23.282Z,26.50
2022-08-24T00:41:25.142Z,26.49
2022-08-24T00:42:26.985Z,26.50
2022-08-24T00:43:29.076Z,26.46
2022-08-24T00:44:30.815Z,26.45
2022-08-24T00:45:42.834Z,26.45
2022-08-24T00:46:51.751Z,26.44
2022-08-24T00:48:06.506Z,26.44
2022-08-24T00:49:19.642Z,26.45
2022-08-24T00:50:33.368Z,26.47
2022-08-24T00:51:54.957Z,26.48
2022-08-24T00:53:01.684Z,26.47
2022-08-24T00:54:13.639Z,26.48
2022-08-24T00:55:23.556Z,26.47
2022-08-24T00:56:42.653Z,26.48
2022-08-24T00:57:49.432Z,26.46
2022-08-24T00:58:57.605Z,26.44
2022-08-24T01:00:08.187Z,26.44
2022-08-24T01:01:14.341Z,26.46
2022-08-24T01:02:23.271Z,26.49
2022-08-24T01:03:27.980Z,26.52
2022-08-24T01:04:39.393Z,26.54
2022-08-24T01:05:41.497Z,26.59
2022-08-24T01:06:43.370Z,26.62
2022-08-24T01:07:50.640Z,26.66
2022-08-24T01:08:56.328Z,26.68
2022-08-24T01:10:06.014Z,26.70
2022-08-24T01:11:13.615Z,26.72
2022-08-24T01:12:17.465Z,26.76
2022-08-24T01:13:20.475Z,26.76
2022-08-24T01:14:24.458Z,26.56
2022-08-24T01:15:26.844Z,26.12
2022-08-24T01:16:47.325Z,25.62
2022-08-24T01:18:08.581Z,25.00
2022-08-24T01:19:29.388Z,24.55
2022-08-24T01:20:31.500Z,24.67
2022-08-24T01:21:52.487Z,24.95
2022-08-24T01:23:09.822Z,25.31
2022-08-24T01:24:14.069Z,25.59
2022-08-24T01:25:17.070Z,25.75
2022-08-24T01:26:25.789Z,25.87
2022-08-24T01:27:28.981Z,25.96
2022-08-24T01:28:31.464Z,26.03
2022-08-24T01:29:36.070Z,26.09
2022-08-24T01:30:38.277Z,26.15
2022-08-24T01:31:40.932Z,26.19
2022-08-24T01:32:53.462Z,26.25
2022-08-24T01:33:56.719Z,26.33
2022-08-24T01:34:59.579Z,26.38
2022-08-24T01:36:30.652Z,26.43
2022-08-24T01:37:33.000Z,26.50
2022-08-24T01:38:35.541Z,26.54
2022-08-24T01:39:46.097Z,26.58
2022-08-24T01:40:55.207Z,26.63
2022-08-24T01:41:57.803Z,26.65
2022-08-24T01:42:59.466Z,26.68
2022-08-24T01:44:01.316Z,26.71
2022-08-24T01:45:05.811Z,26.75
2022-08-24T01:46:08.509Z,26.79
2022-08-24T01:47:12.981Z,26.79
2022-08-24T01:48:15.333Z,26.56
2022-08-24T01:49:30.321Z,26.10
2022-08-24T01:50:34.575Z,25.61
2022-08-24T01:51:36.359Z,25.19
2022-08-24T01:53:03.887Z,24.82
2022-08-24T01:54:04.558Z,24.78
2022-08-24T01:55:09.833Z,25.06
2022-08-24T01:56:11.571Z,25.38
2022-08-24T01:57:16.060Z,25.65
2022-08-24T01:58:19.086Z,25.86
2022-08-24T01:59:21.006Z,26.03
2022-08-24T02:00:22.859Z,26.14
2022-08-24T02:01:29.229Z,26.23
2022-08-24T02:02:32.161Z,26.30
2022-08-24T02:03:34.625Z,26.34
2022-08-24T02:04:37.629Z,26.38
2022-08-24T02:05:39.542Z,26.40
2022-08-24T02:06:44.614Z,26.43
2022-08-24T02:07:48.744Z,26.45
2022-08-24T02:08:50.486Z,26.47
2022-08-24T02:09:52.941Z,26.49
2022-08-24T02:10:56.745Z,26.52
2022-08-24T02:11:59.110Z,26.55
2022-08-24T02:13:02.447Z,26.58
2022-08-24T02:14:05.916Z,26.61
2022-08-24T02:15:09.480Z,26.65
2022-08-24T02:16:11.796Z,26.66
2022-08-24T02:17:13.524Z,26.68
2022-08-24T02:18:15.891Z,26.68
2022-08-24T02:19:17.819Z,26.63
2022-08-24T02:20:21.571Z,26.33
2022-08-24T02:21:25.159Z,25.85
2022-08-24T02:22:27.788Z,25.39
2022-08-24T02:23:29.717Z,24.94
2022-08-24T02:24:31.848Z,24.66
2022-08-24T02:25:33.817Z,24.74
2022-08-24T02:26:35.883Z,25.03
2022-08-24T02:27:38.242Z,25.34
2022-08-24T02:28:40.858Z,25.62
2022-08-24T02:29:43.372Z,25.83
2022-08-24T02:30:45.123Z,26.00
2022-08-24T02:31:47.167Z,26.13
2022-08-24T02:32:49.192Z,26.24
2022-08-24T02:33:51.049Z,26.30
2022-08-24T02:34:54.858Z,26.37
2022-08-24T02:35:57.425Z,26.44
2022-08-24T02:36:59.905Z,26.48
2022-08-24T02:38:01.955Z,26.51
2022-08-24T02:39:06.867Z,26.52
2022-08-24T02:40:10.223Z,26.54
2022-08-24T02:41:12.789Z,26.53
2022-08-24T02:42:15.563Z,26.53
2022-08-24T02:43:17.312Z,26.53
2022-08-24T02:44:20.599Z,26.53
2022-08-24T02:45:22.850Z,26.53
2022-08-24T02:46:27.943Z,26.55
2022-08-24T02:47:38.168Z,26.57
2022-08-24T02:48:41.719Z,26.61
2022-08-24T02:49:43.501Z,26.62
2022-08-24T02:50:49.159Z,26.43
2022-08-24T02:51:50.959Z,25.97
2022-08-24T02:52:54.849Z,25.49
2022-08-24T02:53:59.269Z,25.02
2022-08-24T02:55:01.348Z,24.60
2022-08-24T02:56:03.619Z,24.45
2022-08-24T02:57:06.678Z,24.64
2022-08-24T02:58:10.650Z,24.95
2022-08-24T02:59:12.617Z,25.27
2022-08-24T03:00:18.942Z,25.51
2022-08-24T03:01:30.445Z,25.73
2022-08-24T03:02:32.703Z,25.89
2022-08-24T03:03:35.935Z,26.00
2022-08-24T03:04:37.826Z,26.10
2022-08-24T03:05:40.059Z,26.18
2022-08-24T03:06:42.433Z,26.26
2022-08-24T03:07:44.451Z,26.33
2022-08-24T03:08:47.907Z,26.38
2022-08-24T03:09:58.306Z,26.43
2022-08-24T03:11:00.607Z,26.47
2022-08-24T03:12:02.503Z,26.50
2022-08-24T03:13:04.860Z,26.52
2022-08-24T03:14:08.031Z,26.53
2022-08-24T03:15:12.766Z,26.54
2022-08-24T03:16:14.806Z,26.54
2022-08-24T03:17:16.667Z,26.32
2022-08-24T03:18:19.261Z,25.89
2022-08-24T03:19:27.340Z,25.33
2022-08-24T03:20:29.432Z,24.83
2022-08-24T03:21:33.142Z,24.40
2022-08-24T03:22:34.922Z,24.24
2022-08-24T03:23:37.182Z,24.41
2022-08-24T03:24:39.599Z,24.68
2022-08-24T03:25:41.952Z,24.95
2022-08-24T03:26:44.466Z,25.16
2022-08-24T03:27:46.873Z,25.32
2022-08-24T03:28:49.547Z,25.45
2022-08-24T03:29:51.623Z,25.56
2022-08-24T03:30:53.643Z,25.66
2022-08-24T03:31:57.448Z,25.74
2022-08-24T03:33:01.200Z,25.81
2022-08-24T03:34:04.196Z,25.87
2022-08-24T03:35:06.620Z,25.93
2022-08-24T03:36:12.424Z,25.97
2022-08-24T03:37:16.373Z,26.02
2022-08-24T03:38:18.341Z,26.05
2022-08-24T03:39:20.326Z,26.08
2022-08-24T03:40:24.655Z,26.11
2022-08-24T03:41:28.896Z,26.13
2022-08-24T03:42:30.653Z,26.14
2022-08-24T03:43:46.883Z,26.14
2022-08-24T03:44:49.790Z,26.16
2022-08-24T03:45:52.247Z,26.17
2022-08-24T03:46:54.237Z,26.17
2022-08-24T03:47:57.033Z,26.19
2022-08-24T03:48:59.375Z,26.20
2022-08-24T03:50:01.508Z,26.22
2022-08-24T03:51:04.826Z,26.21
2022-08-24T03:52:07.098Z,26.20
2022-08-24T03:53:08.898Z,26.19
2022-08-24T03:54:12.526Z,26.19
2022-08-24T03:55:14.803Z,26.20
2022-08-24T03:56:17.437Z,26.20
2022-08-24T03:57:19.716Z,26.22
2022-08-24T03:58:21.612Z,26.24
2022-08-24T03:59:24.291Z,26.26
2022-08-24T04:00:28.711Z,26.29
2022-08-24T04:01:31.279Z,26.32
2022-08-24T04:02:33.698Z,26.32
2022-08-24T04:03:38.342Z,26.35
2022-08-24T04:04:40.085Z,26.37
2022-08-24T04:05:42.413Z,26.37
2022-08-24T04:06:46.806Z,26.37
2022-08-24T04:07:49.038Z,26.38
2022-08-24T04:08:52.252Z,26.37
2022-08-24T04:09:55.129Z,26.38
2022-08-24T04:10:58.445Z,26.38
2022-08-24T04:12:00.220Z,26.37
2022-08-24T04:13:02.478Z,26.36
2022-08-24T04:14:04.930Z,26.34
2022-08-24T04:15:07.213Z,26.33
2022-08-24T04:16:17.240Z,26.33
2022-08-24T04:17:19.556Z,26.33
2022-08-24T04:18:25.701Z,26.35
2022-08-24T04:19:30.718Z,26.37
2022-08-24T04:20:38.924Z,26.42
2022-08-24T04:21:40.875Z,26.46
2022-08-24T04:22:42.854Z,26.48
2022-08-24T04:23:48.169Z,26.51
2022-08-24T04:24:51.902Z,26.53
2022-08-24T04:25:53.844Z,26.55
2022-08-24T04:26:55.894Z,26.58
2022-08-24T04:27:59.758Z,26.61
2022-08-24T04:29:02.360Z,26.63
2022-08-24T04:30:14.053Z,26.64
2022-08-24T04:31:59.173Z,26.61
2022-08-24T04:33:01.237Z,26.62
2022-08-24T04:34:03.513Z,26.60
2022-08-24T04:35:06.314Z,26.59
2022-08-24T04:36:10.158Z,26.59
2022-08-24T04:37:14.590Z,26.58
2022-08-24T04:38:19.389Z,26.55
2022-08-24T04:39:33.704Z,26.55
2022-08-24T04:40:50.596Z,26.55
2022-08-24T04:41:52.430Z,26.55
2022-08-24T04:42:55.410Z,26.58
2022-08-24T04:43:57.716Z,26.60
2022-08-24T04:44:59.526Z,26.62
2022-08-24T04:46:08.335Z,26.64
2022-08-24T04:47:10.117Z,26.68
2022-08-24T04:48:14.474Z,26.73
2022-08-24T04:49:16.500Z,26.77
2022-08-24T04:50:18.397Z,26.80
2022-08-24T04:51:25.880Z,26.83
2022-08-24T04:52:29.114Z,26.87
2022-08-24T04:53:31.926Z,26.90
2022-08-24T04:54:34.176Z,26.92
2022-08-24T04:55:50.267Z,26.96
2022-08-24T04:56:52.546Z,27.01
2022-08-24T04:57:54.325Z,27.06
2022-08-24T04:58:56.320Z,27.09
2022-08-24T04:59:58.375Z,27.13
2022-08-24T05:01:00.430Z,27.19
2022-08-24T05:02:02.357Z,27.24
2022-08-24T05:03:04.532Z,27.30
2022-08-24T05:04:06.474Z,27.35
2022-08-24T05:05:09.778Z,27.40
2022-08-24T05:06:15.353Z,27.46
2022-08-24T05:07:18.371Z,27.52
2022-08-24T05:08:20.566Z,27.56
2022-08-24T05:09:22.282Z,27.58
2022-08-24T05:10:24.594Z,27.39
2022-08-24T05:11:29.973Z,26.96
2022-08-24T05:12:32.093Z,26.50
2022-08-24T05:13:37.520Z,26.04
2022-08-24T05:14:39.264Z,25.63
2022-08-24T05:15:43.225Z,25.46
2022-08-24T05:16:51.001Z,25.63
2022-08-24T05:17:54.635Z,25.96
2022-08-24T05:18:56.665Z,26.24
2022-08-24T05:19:58.753Z,26.46
2022-08-24T05:21:00.742Z,26.63
2022-08-24T05:22:03.778Z,26.76
2022-08-24T05:23:05.976Z,26.86
2022-08-24T05:24:12.802Z,26.92
2022-08-24T05:25:15.825Z,26.98
2022-08-24T05:26:25.830Z,27.02
2022-08-24T05:27:28.724Z,27.06
2022-08-24T05:28:31.735Z,27.08
2022-08-24T05:29:34.680Z,27.09
2022-08-24T05:30:41.979Z,27.11
2022-08-24T05:31:46.232Z,27.11
2022-08-24T05:32:49.275Z,27.12
2022-08-24T05:33:52.118Z,27.09
2022-08-24T05:34:54.017Z,27.07
2022-08-24T05:35:55.882Z,27.05
2022-08-24T05:36:58.180Z,27.01
2022-08-24T05:38:07.407Z,26.98
2022-08-24T05:39:14.489Z,26.98
2022-08-24T05:40:19.735Z,26.96
2022-08-24T05:41:29.415Z,26.92
2022-08-24T05:42:41.802Z,26.91
2022-08-24T05:43:44.348Z,26.91
2022-08-24T05:44:46.157Z,26.89
2022-08-24T05:45:49.809Z,26.87
2022-08-24T05:46:51.651Z,26.87
2022-08-24T05:47:53.395Z,26.86
2022-08-24T05:49:45.833Z,26.84
2022-08-24T05:50:55.542Z,26.85
2022-08-24T05:51:57.847Z,26.86
2022-08-24T05:53:00.341Z,26.89
2022-08-24T05:54:04.418Z,26.91
2022-08-24T05:55:14.074Z,26.94
2022-08-24T05:56:18.536Z,26.98
2022-08-24T05:57:22.250Z,27.03
2022-08-24T05:58:37.755Z,27.06
2022-08-24T05:59:40.115Z,27.03
2022-08-24T06:00:49.697Z,27.04
2022-08-24T06:01:51.681Z,27.08
2022-08-24T06:02:53.759Z,27.11
2022-08-24T06:03:57.480Z,27.14
2022-08-24T06:04:59.214Z,27.17
2022-08-24T06:06:03.785Z,27.18
2022-08-24T06:07:10.221Z,27.21
2022-08-24T06:08:13.195Z,27.21
2022-08-24T06:09:15.078Z,27.22
2022-08-24T06:10:35.990Z,27.22
2022-08-24T06:11:40.908Z,27.22
2022-08-24T06:12:42.763Z,27.21
2022-08-24T06:13:44.510Z,27.24
2022-08-24T06:14:47.918Z,27.26
2022-08-24T06:16:20.308Z,27.26
2022-08-24T06:17:23.018Z,27.27
2022-08-24T06:18:26.545Z,27.28
2022-08-24T06:19:28.896Z,27.28
2022-08-24T06:20:32.165Z,27.28
2022-08-24T06:21:34.099Z,27.27
2022-08-24T06:22:35.803Z,27.28
2022-08-24T06:23:39.947Z,27.29
2022-08-24T06:25:01.705Z,27.29
2022-08-24T06:26:23.675Z,27.29
2022-08-24T06:27:26.285Z,27.26
2022-08-24T06:28:30.597Z,27.25
2022-08-24T06:29:34.091Z,27.25
2022-08-24T06:30:48.984Z,27.26
2022-08-24T06:31:54.676Z,27.28
2022-08-24T06:33:00.723Z,27.30
2022-08-24T06:34:13.230Z,27.31
2022-08-24T06:35:14.949Z,27.33
2022-08-24T06:36:18.534Z,27.37
2022-08-24T06:37:27.538Z,27.41
2022-08-24T06:38:31.412Z,27.42
2022-08-24T06:39:33.419Z,27.46
2022-08-24T06:40:36.429Z,27.49
2022-08-24T06:41:39.415Z,27.51
2022-08-24T06:42:44.108Z,27.52
2022-08-24T06:43:56.984Z,27.57
2022-08-24T06:45:03.240Z,27.60
2022-08-24T06:46:06.642Z,27.63
2022-08-24T06:47:14.150Z,27.63
2022-08-24T06:48:16.342Z,27.50
2022-08-24T06:49:19.236Z,27.12
2022-08-24T06:50:22.105Z,26.64
2022-08-24T06:51:26.474Z,26.14
2022-08-24T06:52:28.629Z,25.70
2022-08-24T06:53:30.659Z,25.37
2022-08-24T06:54:33.094Z,25.39
2022-08-24T06:55:38.098Z,25.66
2022-08-24T06:56:39.824Z,25.97
2022-08-24T06:57:41.942Z,26.24
2022-08-24T06:58:44.724Z,26.47
2022-08-24T06:59:50.066Z,26.65
2022-08-24T07:00:55.144Z,26.79
2022-08-24T07:01:58.311Z,26.90
2022-08-24T07:03:02.214Z,26.98
2022-08-24T07:04:05.013Z,27.03
2022-08-24T07:05:35.838Z,27.10
2022-08-24T07:06:55.140Z,27.14
2022-08-24T07:07:57.682Z,27.17
2022-08-24T07:09:00.663Z,27.20
2022-08-24T07:10:02.506Z,27.25
2022-08-24T07:11:05.821Z,27.30
2022-08-24T07:12:07.939Z,27.35
2022-08-24T07:13:11.490Z,27.39
2022-08-24T07:14:14.126Z,27.42
2022-08-24T07:15:16.671Z,27.43
2022-08-24T07:16:21.352Z,27.47
2022-08-24T07:17:26.293Z,27.52
2022-08-24T07:18:28.957Z,27.56
2022-08-24T07:19:30.822Z,27.63
2022-08-24T07:20:32.576Z,27.69
2022-08-24T07:21:42.682Z,27.72
2022-08-24T07:22:45.353Z,27.76
2022-08-24T07:23:54.013Z,27.79
2022-08-24T07:24:55.708Z,27.83
2022-08-24T07:25:57.529Z,27.86
2022-08-24T07:27:00.823Z,27.89
2022-08-24T07:28:06.763Z,27.81
2022-08-24T07:29:43.573Z,27.45
2022-08-24T07:30:39.736Z,26.82
2022-08-24T07:31:44.211Z,26.35
2022-08-24T07:32:57.545Z,25.85
2022-08-24T07:33:59.853Z,25.77
2022-08-24T07:35:01.604Z,25.94
2022-08-24T07:36:03.936Z,26.20
2022-08-24T07:37:07.853Z,26.44
2022-08-24T07:38:12.868Z,26.61
2022-08-24T07:39:14.971Z,26.74
2022-08-24T07:40:18.068Z,26.83
2022-08-24T07:41:51.318Z,26.89
2022-08-24T07:42:48.802Z,26.96
2022-08-24T07:43:50.591Z,27.02
2022-08-24T07:44:52.280Z,27.05
2022-08-24T07:45:54.362Z,27.06
2022-08-24T07:46:57.068Z,27.09
2022-08-24T07:49:29.379Z,27.20
2022-08-24T07:50:37.243Z,27.29
2022-08-24T07:51:46.771Z,27.35
2022-08-24T07:52:49.071Z,27.41
2022-08-24T07:53:53.923Z,27.47
2022-08-24T07:54:57.590Z,27.54
2022-08-24T07:55:59.445Z,27.53
2022-08-24T07:57:04.793Z,27.53
2022-08-24T07:58:07.358Z,27.56
2022-08-24T07:59:13.096Z,27.57
2022-08-24T08:00:19.575Z,27.61
2022-08-24T08:01:23.373Z,27.65
2022-08-24T08:02:29.958Z,27.68
2022-08-24T08:03:38.281Z,27.71
2022-08-24T08:04:40.865Z,27.66
2022-08-24T08:05:43.213Z,27.64
2022-08-24T08:06:45.060Z,27.63
2022-08-24T08:07:51.502Z,27.61
2022-08-24T08:08:54.289Z,27.63
2022-08-24T08:09:56.094Z,27.66
2022-08-24T08:10:58.101Z,27.70
2022-08-24T08:11:59.973Z,27.74
2022-08-24T08:13:03.553Z,27.80
2022-08-24T08:14:06.385Z,27.84
2022-08-24T08:15:09.903Z,27.88
2022-08-24T08:16:12.743Z,27.94
2022-08-24T08:17:15.190Z,27.97
2022-08-24T08:18:19.586Z,27.87
2022-08-24T08:19:21.355Z,27.50
2022-08-24T08:20:23.162Z,27.07
2022-08-24T08:21:43.733Z,26.63
2022-08-24T08:23:05.090Z,26.14
2022-08-24T08:24:15.243Z,25.98
2022-08-24T08:25:19.271Z,26.25
2022-08-24T08:26:21.268Z,26.63
2022-08-24T08:27:35.822Z,27.01
2022-08-24T08:28:38.172Z,27.24
2022-08-24T08:29:40.901Z,27.44
2022-08-24T08:30:42.808Z,27.60
2022-08-24T08:31:45.922Z,27.74
2022-08-24T08:32:47.778Z,27.86
2022-08-24T08:33:49.488Z,27.95
2022-08-24T08:34:52.898Z,28.04
2022-08-24T08:36:19.242Z,28.08
2022-08-24T08:37:26.075Z,28.15
2022-08-24T08:38:28.986Z,28.22
2022-08-24T08:39:33.986Z,28.29
2022-08-24T08:40:41.557Z,28.29
2022-08-24T08:42:30.513Z,28.07
2022-08-24T08:43:46.297Z,27.36
2022-08-24T08:45:06.467Z,26.85
2022-08-24T08:46:24.235Z,26.33
2022-08-24T08:48:07.860Z,25.82
2022-08-24T08:49:45.032Z,25.76
2022-08-24T08:51:26.686Z,26.27
2022-08-24T08:52:43.621Z,26.70
2022-08-24T08:54:01.349Z,27.00
2022-08-24T08:55:29.370Z,27.23
2022-08-24T08:57:06.482Z,27.40
2022-08-24T08:58:19.676Z,27.56
2022-08-24T08:59:59.116Z,27.65
2022-08-24T09:01:10.655Z,27.76
2022-08-24T09:02:16.013Z,27.81
2022-08-24T09:03:32.832Z,27.81
2022-08-24T09:05:47.471Z,27.83
2022-08-24T09:07:10.098Z,27.89
2022-08-24T09:08:57.843Z,27.92
2022-08-24T09:10:42.170Z,27.95
2022-08-24T09:12:08.254Z,27.49
2022-08-24T09:13:42.490Z,26.87
2022-08-24T09:15:09.903Z,26.23
2022-08-24T09:16:43.432Z,25.89
2022-08-24T09:18:16.908Z,26.13
2022-08-24T09:19:40.344Z,26.66
2022-08-24T09:21:33.969Z,27.10
2022-08-24T09:22:43.523Z,27.52
2022-08-24T09:24:05.949Z,27.71
2022-08-24T09:25:16.351Z,27.92
2022-08-24T09:26:27.163Z,28.07
2022-08-24T09:28:05.285Z,28.24
2022-08-24T09:29:19.080Z,28.42
2022-08-24T09:30:27.560Z,28.52
2022-08-24T09:32:00.958Z,28.58
2022-08-24T09:33:21.235Z,28.30
2022-08-24T09:34:35.569Z,27.76
2022-08-24T09:36:02.083Z,27.26
2022-08-24T09:37:28.481Z,26.75
2022-08-24T09:39:06.133Z,26.33
2022-08-24T09:40:35.961Z,26.41
2022-08-24T09:41:59.925Z,26.96
2022-08-24T09:43:58.316Z,27.44
2022-08-24T09:45:20.324Z,27.97
2022-08-24T09:47:06.553Z,28.22
2022-08-24T09:48:15.833Z,28.47
2022-08-24T09:49:50.944Z,28.60
2022-08-24T09:51:26.296Z,28.42
2022-08-24T09:52:42.829Z,27.83
2022-08-24T09:54:20.634Z,27.33
2022-08-24T09:55:34.318Z,26.79
2022-08-24T09:56:51.486Z,26.49
2022-08-24T09:58:03.674Z,26.62
2022-08-24T09:59:18.597Z,27.05
2022-08-24T10:00:31.242Z,27.52
2022-08-24T10:01:41.768Z,27.89
2022-08-24T10:03:02.727Z,28.13
2022-08-24T10:04:19.642Z,28.31
2022-08-24T10:05:36.344Z,28.47
2022-08-24T10:06:55.827Z,28.55
2022-08-24T10:08:39.361Z,28.26
2022-08-24T10:10:10.520Z,27.68
2022-08-24T10:11:12.118Z,27.23
2022-08-24T10:12:55.570Z,26.97
2022-08-24T10:14:23.839Z,26.71
2022-08-24T10:15:36.668Z,27.09
2022-08-24T10:16:42.302Z,27.56
2022-08-24T10:18:08.378Z,27.94
2022-08-24T10:19:19.245Z,28.32
2022-08-24T10:20:24.381Z,28.53
2022-08-24T10:21:29.081Z,28.66
2022-08-24T10:22:49.564Z,28.77
2022-08-24T10:24:03.234Z,28.63
2022-08-24T10:25:30.110Z,28.23
2022-08-24T10:27:00.172Z,27.73
2022-08-24T10:28:37.645Z,27.30
2022-08-24T10:30:16.066Z,26.92
2022-08-24T10:31:43.708Z,26.91
2022-08-24T10:33:28.788Z,27.40
2022-08-24T10:34:42.396Z,28.13
2022-08-24T10:35:56.232Z,28.54
2022-08-24T10:37:06.853Z,28.84
2022-08-24T10:38:47.733Z,29.08
2022-08-24T10:39:57.841Z,29.29
2022-08-24T10:41:33.850Z,29.07
2022-08-24T10:43:26.095Z,28.57
2022-08-24T10:44:48.679Z,28.12
2022-08-24T10:46:10.080Z,27.85
2022-08-24T10:47:30.897Z,27.60
2022-08-24T10:49:20.261Z,27.40
2022-08-24T10:50:55.754Z,27.17
2022-08-24T10:52:16.870Z,27.57
2022-08-24T10:53:24.360Z,28.24
2022-08-24T10:54:26.502Z,28.77
2022-08-24T10:55:32.409Z,29.20
2022-08-24T10:56:40.104Z,29.57
2022-08-24T10:57:56.552Z,29.88
2022-08-24T10:59:27.123Z,29.93
2022-08-24T11:00:30.700Z,29.56
2022-08-24T11:01:35.956Z,29.25
2022-08-24T11:02:40.397Z,28.98
2022-08-24T11:04:25.339Z,28.76
2022-08-24T11:05:41.737Z,28.49
2022-08-24T11:07:05.670Z,28.34
2022-08-24T11:08:07.898Z,28.17
2022-08-24T11:09:19.285Z,28.07
2022-08-24T11:10:28.618Z,28.01
2022-08-24T11:11:42.551Z,28.31
2022-08-24T11:12:44.729Z,28.87
2022-08-24T11:13:59.186Z,29.33
2022-08-24T11:15:10.851Z,29.80
2022-08-24T11:16:25.803Z,30.15
2022-08-24T11:17:30.184Z,30.32
2022-08-24T11:18:55.320Z,30.19
2022-08-24T11:19:59.252Z,29.85
2022-08-24T11:21:02.760Z,29.59
2022-08-24T11:22:27.402Z,29.36
2022-08-24T11:23:36.478Z,29.10
2022-08-24T11:24:46.507Z,28.93
2022-08-24T11:26:05.222Z,28.77
2022-08-24T11:27:16.176Z,28.63
2022-08-24T11:28:25.452Z,28.52
2022-08-24T11:29:49.871Z,28.44
2022-08-24T11:30:51.639Z,28.38
2022-08-24T11:31:53.475Z,28.35
2022-08-24T11:33:04.718Z,28.30
2022-08-24T11:34:10.642Z,28.28
2022-08-24T11:35:34.823Z,28.46
2022-08-24T11:36:39.115Z,29.07
2022-08-24T11:37:40.869Z,29.61
2022-08-24T11:38:45.817Z,30.06
2022-08-24T11:39:47.706Z,30.43
2022-08-24T11:40:52.402Z,30.53
2022-08-24T11:42:03.317Z,30.38
2022-08-24T11:43:13.919Z,30.11
2022-08-24T11:44:38.772Z,29.86
2022-08-24T11:46:04.130Z,29.64
2022-08-24T11:47:24.658Z,29.46
2022-08-24T11:48:36.217Z,29.34
2022-08-24T11:50:14.538Z,29.27
2022-08-24T11:51:35.623Z,29.18
2022-08-24T11:53:00.619Z,29.14
2022-08-24T11:54:19.496Z,29.12
2022-08-24T11:55:38.496Z,29.10
2022-08-24T11:57:10.785Z,29.08
2022-08-24T11:58:23.159Z,29.04
2022-08-24T11:59:48.199Z,29.01
2022-08-24T12:01:34.788Z,29.02
2022-08-24T12:02:55.408Z,29.03
2022-08-24T12:04:31.982Z,29.02
2022-08-24T12:05:53.365Z,29.05
2022-08-24T12:07:07.877Z,29.11
2022-08-24T12:08:34.397Z,29.14
2022-08-24T12:10:00.757Z,29.21
2022-08-24T12:11:19.377Z,29.25
2022-08-24T12:12:38.827Z,29.27
2022-08-24T12:13:59.061Z,29.29
2022-08-24T12:15:24.929Z,29.31
2022-08-24T12:16:47.829Z,29.32
2022-08-24T12:18:13.089Z,29.31
2022-08-24T12:19:35.723Z,29.32
2022-08-24T12:20:43.664Z,29.32
2022-08-24T12:21:55.739Z,29.34
2022-08-24T12:23:02.893Z,29.37
2022-08-24T12:24:13.095Z,29.42
2022-08-24T12:25:35.994Z,29.46
2022-08-24T12:26:45.564Z,29.51
2022-08-24T12:27:47.353Z,29.54
2022-08-24T12:28:59.966Z,29.60
2022-08-24T12:30:07.353Z,29.67
2022-08-24T12:31:31.811Z,29.75
2022-08-24T12:32:42.422Z,29.84
2022-08-24T12:33:51.537Z,29.92
2022-08-24T12:35:14.857Z,29.97
2022-08-24T12:36:51.325Z,30.02
2022-08-24T12:38:09.578Z,30.05
2022-08-24T12:39:19.734Z,30.09
2022-08-24T12:40:42.712Z,30.10
2022-08-24T12:42:27.763Z,30.12
2022-08-24T12:43:44.999Z,30.15
2022-08-24T12:44:58.794Z,30.17
2022-08-24T12:46:01.354Z,30.21
2022-08-24T12:47:03.525Z,30.27
2022-08-24T12:48:14.862Z,30.30
2022-08-24T12:49:27.042Z,30.38
2022-08-24T12:50:46.492Z,30.47
2022-08-24T12:52:18.947Z,30.57
2022-08-24T12:53:42.443Z,30.64
2022-08-24T12:55:14.350Z,30.72
2022-08-24T12:56:37.869Z,30.82
2022-08-24T12:58:00.663Z,30.86
2022-08-24T12:59:21.100Z,30.85
2022-08-24T13:00:32.822Z,30.83
2022-08-24T13:01:42.073Z,30.80
2022-08-24T13:02:55.001Z,30.80
2022-08-24T13:04:41.673Z,30.79
2022-08-24T13:05:48.478Z,30.78
2022-08-24T13:07:05.239Z,30.80
2022-08-24T13:08:16.185Z,30.83
2022-08-24T13:09:31.183Z,30.87
2022-08-24T13:10:45.202Z,30.90
2022-08-24T13:11:47.334Z,30.92
2022-08-24T13:13:09.253Z,30.91
2022-08-24T13:14:31.178Z,30.93
2022-08-24T13:15:32.975Z,30.99
2022-08-24T13:16:49.202Z,31.08
2022-08-24T13:17:57.784Z,31.17
2022-08-24T13:19:32.386Z,31.24
2022-08-24T13:20:36.697Z,31.26
2022-08-24T13:21:43.350Z,31.24
2022-08-24T13:23:21.738Z,31.24
2022-08-24T13:24:29.626Z,31.20
2022-08-24T13:25:58.065Z,31.24
2022-08-24T13:27:11.744Z,31.32
2022-08-24T13:28:22.720Z,31.41
2022-08-24T13:29:34.768Z,31.46
2022-08-24T13:31:08.635Z,31.54
2022-08-24T13:32:44.157Z,31.59
2022-08-24T13:33:53.957Z,31.63
2022-08-24T13:34:58.620Z,31.73
2022-08-24T13:36:06.262Z,31.82
2022-08-24T13:37:22.389Z,31.87
2022-08-24T13:38:24.041Z,31.87
2022-08-24T13:39:56.893Z,31.83
2022-08-24T13:41:10.496Z,31.81
2022-08-24T13:42:27.256Z,31.82
2022-08-24T13:43:49.221Z,31.84
2022-08-24T13:45:15.817Z,31.90
2022-08-24T13:46:32.291Z,31.99
2022-08-24T13:48:08.404Z,32.07
2022-08-24T13:49:31.042Z,32.15
2022-08-24T13:50:46.179Z,32.22
2022-08-24T13:52:22.389Z,32.31
2022-08-24T13:54:13.638Z,32.37
2022-08-24T13:55:41.755Z,32.31
2022-08-24T13:56:59.825Z,32.25
2022-08-24T13:58:39.508Z,32.22
2022-08-24T14:00:17.994Z,32.27
2022-08-24T14:01:38.134Z,32.28
2022-08-24T14:02:51.552Z,32.26
2022-08-24T14:04:16.096Z,32.24
2022-08-24T14:05:30.002Z,32.22
2022-08-24T14:06:41.088Z,32.24
2022-08-24T14:08:07.945Z,32.26
2022-08-24T14:09:21.438Z,32.27
2022-08-24T14:10:41.365Z,32.25
2022-08-24T14:12:14.425Z,32.25
2022-08-24T14:13:32.927Z,32.29
2022-08-24T14:14:54.715Z,32.39
2022-08-24T14:16:46.431Z,32.44
2022-08-24T14:17:58.766Z,32.45
2022-08-24T14:19:17.329Z,32.48
2022-08-24T14:20:52.962Z,32.54
2022-08-24T14:22:09.766Z,32.59
2022-08-24T14:23:39.368Z,32.64
2022-08-24T14:24:49.640Z,32.71
2022-08-24T14:26:30.074Z,32.76
2022-08-24T14:27:39.699Z,32.79
2022-08-24T14:28:43.575Z,32.73
2022-08-24T14:29:47.173Z,32.66
2022-08-24T14:31:14.954Z,32.60
2022-08-24T14:32:22.743Z,32.55
2022-08-24T14:33:43.538Z,32.49
2022-08-24T14:35:05.155Z,32.43
2022-08-24T14:36:21.576Z,32.39
2022-08-24T14:37:29.620Z,32.32
2022-08-24T14:38:48.291Z,32.23
2022-08-24T14:39:55.942Z,32.10
2022-08-24T14:41:03.807Z,32.01
2022-08-24T14:42:32.991Z,31.94
2022-08-24T14:44:06.078Z,31.90
2022-08-24T14:45:10.637Z,31.85
2022-08-24T14:46:29.130Z,31.83
2022-08-24T14:48:08.825Z,31.82
2022-08-24T14:49:35.815Z,31.77
2022-08-24T14:50:55.934Z,31.71
2022-08-24T14:52:35.423Z,31.67
2022-08-24T14:53:39.722Z,31.63
2022-08-24T14:54:59.834Z,31.61
2022-08-24T14:56:32.040Z,31.60
2022-08-24T14:57:56.701Z,31.64
2022-08-24T14:59:13.148Z,31.66
2022-08-24T15:00:23.202Z,31.67
2022-08-24T15:01:40.793Z,31.69
2022-08-24T15:02:51.230Z,31.72
2022-08-24T15:04:11.562Z,31.73
2022-08-24T15:05:27.099Z,31.72
2022-08-24T15:06:47.166Z,31.71
2022-08-24T15:07:59.813Z,31.68
2022-08-24T15:09:09.125Z,31.64
2022-08-24T15:10:15.152Z,31.59
2022-08-24T15:11:27.709Z,31.57
2022-08-24T15:12:42.618Z,31.54